sensor_id;sensor_type;location;lat;lon;timestamp;P1;durP1;ratioP1;P2;durP2;ratioP2
50968;SDS011;36982;51.474;7.228;2023-04-09T00:01:04;33.17;;;21.07;;
50968;SDS011;36982;51.474;7.228;2023-04-09T00:03:31;32.10;;;19.60;;
50968;SDS011;36982;51.474;7.228;2023-04-09T00:05:56;35.37;;;20.27;;
50968;SDS011;36982;51.474;7.228;2023-04-09T00:08:22;35.83;;;20.97;;
50968;SDS011;36982;51.474;7.228;2023-04-09T00:10:48;33.27;;;20.40;;
50968;SDS011;36982;51.474;7.228;2023-04-09T00:13:14;35.37;;;20.33;;
50968;SDS011;36982;51.474;7.228;2023-04-09T00:15:40;34.37;;;20.83;;
50968;SDS011;36982;51.474;7.228;2023-04-09T00:18:06;30.10;;;19.03;;
50968;SDS011;36982;51.474;7.228;2023-04-09T00:20:31;27.73;;;18.77;;
50968;SDS011;36982;51.474;7.228;2023-04-09T00:22:57;30.37;;;18.23;;
50968;SDS011;36982;51.474;7.228;2023-04-09T00:25:23;29.53;;;18.23;;
50968;SDS011;36982;51.474;7.228;2023-04-09T00:27:48;28.70;;;19.03;;
50968;SDS011;36982;51.474;7.228;2023-04-09T00:30:14;30.20;;;18.97;;
50968;SDS011;36982;51.474;7.228;2023-04-09T00:32:40;31.13;;;19.13;;
50968;SDS011;36982;51.474;7.228;2023-04-09T00:35:06;31.07;;;18.90;;
50968;SDS011;36982;51.474;7.228;2023-04-09T00:37:32;31.43;;;18.77;;
50968;SDS011;36982;51.474;7.228;2023-04-09T00:39:58;29.53;;;18.53;;
50968;SDS011;36982;51.474;7.228;2023-04-09T00:42:23;28.60;;;18.70;;
50968;SDS011;36982;51.474;7.228;2023-04-09T00:44:50;32.57;;;19.20;;
50968;SDS011;36982;51.474;7.228;2023-04-09T00:47:16;31.00;;;19.53;;
50968;SDS011;36982;51.474;7.228;2023-04-09T00:49:42;31.93;;;19.77;;
50968;SDS011;36982;51.474;7.228;2023-04-09T00:52:08;32.70;;;19.53;;
50968;SDS011;36982;51.474;7.228;2023-04-09T00:54:34;30.03;;;18.50;;
50968;SDS011;36982;51.474;7.228;2023-04-09T00:57:00;29.07;;;19.20;;
50968;SDS011;36982;51.474;7.228;2023-04-09T00:59:26;28.57;;;18.30;;
50968;SDS011;36982;51.474;7.228;2023-04-09T01:01:52;28.73;;;17.73;;
50968;SDS011;36982;51.474;7.228;2023-04-09T01:04:18;30.73;;;18.43;;
50968;SDS011;36982;51.474;7.228;2023-04-09T01:06:47;30.77;;;18.13;;
50968;SDS011;36982;51.474;7.228;2023-04-09T01:09:26;29.40;;;18.10;;
50968;SDS011;36982;51.474;7.228;2023-04-09T01:12:11;30.43;;;18.67;;
50968;SDS011;36982;51.474;7.228;2023-04-09T01:15:04;31.53;;;18.63;;
50968;SDS011;36982;51.474;7.228;2023-04-09T01:20:22;32.00;;;19.40;;
50968;SDS011;36982;51.474;7.228;2023-04-09T01:23:13;31.97;;;19.00;;
50968;SDS011;36982;51.474;7.228;2023-04-09T01:30:41;30.63;;;18.93;;
50968;SDS011;36982;51.474;7.228;2023-04-09T01:33:11;30.30;;;18.90;;
50968;SDS011;36982;51.474;7.228;2023-04-09T01:35:39;33.43;;;20.37;;
50968;SDS011;36982;51.474;7.228;2023-04-09T01:38:10;29.10;;;19.97;;
50968;SDS011;36982;51.474;7.228;2023-04-09T01:40:37;29.80;;;20.30;;
50968;SDS011;36982;51.474;7.228;2023-04-09T01:43:03;28.13;;;18.70;;
50968;SDS011;36982;51.474;7.228;2023-04-09T01:45:31;35.23;;;20.67;;
50968;SDS011;36982;51.474;7.228;2023-04-09T01:47:58;31.80;;;19.80;;
50968;SDS011;36982;51.474;7.228;2023-04-09T01:50:25;32.20;;;19.50;;
50968;SDS011;36982;51.474;7.228;2023-04-09T01:52:51;29.70;;;18.77;;
50968;SDS011;36982;51.474;7.228;2023-04-09T01:55:17;29.40;;;18.80;;
50968;SDS011;36982;51.474;7.228;2023-04-09T01:57:47;33.60;;;19.00;;
50968;SDS011;36982;51.474;7.228;2023-04-09T02:00:12;29.33;;;19.40;;
50968;SDS011;36982;51.474;7.228;2023-04-09T02:02:41;30.27;;;19.70;;
50968;SDS011;36982;51.474;7.228;2023-04-09T02:05:30;32.53;;;19.67;;
50968;SDS011;36982;51.474;7.228;2023-04-09T02:08:02;33.27;;;19.70;;
50968;SDS011;36982;51.474;7.228;2023-04-09T02:10:30;28.83;;;18.37;;
50968;SDS011;36982;51.474;7.228;2023-04-09T02:12:59;29.90;;;18.43;;
50968;SDS011;36982;51.474;7.228;2023-04-09T02:15:27;31.20;;;20.27;;
50968;SDS011;36982;51.474;7.228;2023-04-09T02:17:54;31.87;;;18.77;;
50968;SDS011;36982;51.474;7.228;2023-04-09T02:20:20;30.20;;;19.30;;
50968;SDS011;36982;51.474;7.228;2023-04-09T02:22:46;32.20;;;18.63;;
50968;SDS011;36982;51.474;7.228;2023-04-09T02:25:12;29.63;;;19.60;;
50968;SDS011;36982;51.474;7.228;2023-04-09T02:27:38;29.27;;;18.77;;
50968;SDS011;36982;51.474;7.228;2023-04-09T02:30:03;29.53;;;19.77;;
50968;SDS011;36982;51.474;7.228;2023-04-09T02:32:29;29.20;;;19.50;;
50968;SDS011;36982;51.474;7.228;2023-04-09T02:34:55;31.90;;;20.33;;
50968;SDS011;36982;51.474;7.228;2023-04-09T02:37:21;32.37;;;19.77;;
50968;SDS011;36982;51.474;7.228;2023-04-09T02:39:46;29.17;;;18.87;;
50968;SDS011;36982;51.474;7.228;2023-04-09T02:42:12;31.20;;;19.37;;
50968;SDS011;36982;51.474;7.228;2023-04-09T02:44:37;27.77;;;19.27;;
50968;SDS011;36982;51.474;7.228;2023-04-09T02:47:03;32.60;;;20.30;;
50968;SDS011;36982;51.474;7.228;2023-04-09T02:49:28;33.50;;;20.30;;
50968;SDS011;36982;51.474;7.228;2023-04-09T02:51:54;27.53;;;18.20;;
50968;SDS011;36982;51.474;7.228;2023-04-09T02:54:20;30.37;;;19.63;;
50968;SDS011;36982;51.474;7.228;2023-04-09T02:56:45;34.17;;;19.00;;
50968;SDS011;36982;51.474;7.228;2023-04-09T02:59:11;34.00;;;19.23;;
50968;SDS011;36982;51.474;7.228;2023-04-09T03:01:36;29.13;;;17.80;;
50968;SDS011;36982;51.474;7.228;2023-04-09T03:04:02;28.03;;;17.97;;
50968;SDS011;36982;51.474;7.228;2023-04-09T03:06:27;29.00;;;18.43;;
50968;SDS011;36982;51.474;7.228;2023-04-09T03:08:53;33.67;;;19.77;;
50968;SDS011;36982;51.474;7.228;2023-04-09T03:11:19;29.67;;;18.57;;
50968;SDS011;36982;51.474;7.228;2023-04-09T03:13:44;30.30;;;18.47;;
50968;SDS011;36982;51.474;7.228;2023-04-09T03:16:10;33.50;;;19.60;;
50968;SDS011;36982;51.474;7.228;2023-04-09T03:18:35;30.87;;;19.97;;
50968;SDS011;36982;51.474;7.228;2023-04-09T03:21:07;26.90;;;18.30;;
50968;SDS011;36982;51.474;7.228;2023-04-09T03:23:33;32.00;;;19.77;;
50968;SDS011;36982;51.474;7.228;2023-04-09T03:26:00;33.00;;;20.80;;
50968;SDS011;36982;51.474;7.228;2023-04-09T03:28:27;30.57;;;18.97;;
50968;SDS011;36982;51.474;7.228;2023-04-09T03:30:52;27.73;;;18.37;;
50968;SDS011;36982;51.474;7.228;2023-04-09T03:33:18;27.23;;;17.80;;
50968;SDS011;36982;51.474;7.228;2023-04-09T03:35:44;27.60;;;18.37;;
50968;SDS011;36982;51.474;7.228;2023-04-09T03:38:09;27.40;;;18.03;;
50968;SDS011;36982;51.474;7.228;2023-04-09T03:40:35;26.60;;;17.77;;
50968;SDS011;36982;51.474;7.228;2023-04-09T03:43:01;24.47;;;16.63;;
50968;SDS011;36982;51.474;7.228;2023-04-09T03:45:28;27.13;;;18.03;;
50968;SDS011;36982;51.474;7.228;2023-04-09T03:47:53;27.90;;;17.50;;
50968;SDS011;36982;51.474;7.228;2023-04-09T03:50:19;26.13;;;17.13;;
50968;SDS011;36982;51.474;7.228;2023-04-09T03:52:45;33.30;;;17.73;;
50968;SDS011;36982;51.474;7.228;2023-04-09T03:55:11;26.60;;;17.50;;
50968;SDS011;36982;51.474;7.228;2023-04-09T03:57:36;27.67;;;17.20;;
50968;SDS011;36982;51.474;7.228;2023-04-09T04:00:02;26.60;;;16.53;;
50968;SDS011;36982;51.474;7.228;2023-04-09T04:02:28;26.93;;;17.47;;
50968;SDS011;36982;51.474;7.228;2023-04-09T04:04:57;24.60;;;16.77;;
50968;SDS011;36982;51.474;7.228;2023-04-09T04:07:25;25.23;;;17.00;;
50968;SDS011;36982;51.474;7.228;2023-04-09T04:09:51;30.13;;;18.03;;
50968;SDS011;36982;51.474;7.228;2023-04-09T04:12:17;26.30;;;16.60;;
50968;SDS011;36982;51.474;7.228;2023-04-09T04:14:42;26.27;;;17.03;;
50968;SDS011;36982;51.474;7.228;2023-04-09T04:17:09;26.07;;;17.63;;
50968;SDS011;36982;51.474;7.228;2023-04-09T04:19:35;42.07;;;17.93;;
50968;SDS011;36982;51.474;7.228;2023-04-09T04:22:01;27.70;;;16.43;;
50968;SDS011;36982;51.474;7.228;2023-04-09T04:24:26;28.10;;;16.17;;
50968;SDS011;36982;51.474;7.228;2023-04-09T04:26:52;22.57;;;15.63;;
50968;SDS011;36982;51.474;7.228;2023-04-09T04:29:17;25.83;;;17.63;;
50968;SDS011;36982;51.474;7.228;2023-04-09T04:31:43;30.20;;;17.47;;
50968;SDS011;36982;51.474;7.228;2023-04-09T04:34:08;27.73;;;16.80;;
50968;SDS011;36982;51.474;7.228;2023-04-09T04:36:35;33.37;;;16.90;;
50968;SDS011;36982;51.474;7.228;2023-04-09T04:39:01;27.50;;;16.30;;
50968;SDS011;36982;51.474;7.228;2023-04-09T04:41:27;29.43;;;16.20;;
50968;SDS011;36982;51.474;7.228;2023-04-09T04:43:53;33.80;;;18.53;;
50968;SDS011;36982;51.474;7.228;2023-04-09T04:46:19;25.53;;;15.47;;
50968;SDS011;36982;51.474;7.228;2023-04-09T04:48:45;29.77;;;17.40;;
50968;SDS011;36982;51.474;7.228;2023-04-09T04:51:10;36.80;;;17.40;;
50968;SDS011;36982;51.474;7.228;2023-04-09T04:53:36;26.40;;;15.83;;
50968;SDS011;36982;51.474;7.228;2023-04-09T04:56:01;28.87;;;17.63;;
50968;SDS011;36982;51.474;7.228;2023-04-09T04:58:27;24.50;;;16.20;;
50968;SDS011;36982;51.474;7.228;2023-04-09T05:00:54;30.10;;;17.73;;
50968;SDS011;36982;51.474;7.228;2023-04-09T05:03:19;27.60;;;17.50;;
50968;SDS011;36982;51.474;7.228;2023-04-09T05:05:45;23.33;;;15.93;;
50968;SDS011;36982;51.474;7.228;2023-04-09T05:08:11;25.57;;;15.83;;
50968;SDS011;36982;51.474;7.228;2023-04-09T05:10:39;24.83;;;17.07;;
50968;SDS011;36982;51.474;7.228;2023-04-09T05:13:05;27.07;;;16.23;;
50968;SDS011;36982;51.474;7.228;2023-04-09T05:15:31;25.53;;;16.57;;
50968;SDS011;36982;51.474;7.228;2023-04-09T05:17:56;28.93;;;16.77;;
50968;SDS011;36982;51.474;7.228;2023-04-09T05:20:22;25.07;;;15.93;;
50968;SDS011;36982;51.474;7.228;2023-04-09T05:22:47;25.03;;;16.30;;
50968;SDS011;36982;51.474;7.228;2023-04-09T05:25:13;25.73;;;15.73;;
50968;SDS011;36982;51.474;7.228;2023-04-09T05:27:40;26.10;;;16.43;;
50968;SDS011;36982;51.474;7.228;2023-04-09T05:30:05;26.00;;;17.07;;
50968;SDS011;36982;51.474;7.228;2023-04-09T05:32:31;23.87;;;16.13;;
50968;SDS011;36982;51.474;7.228;2023-04-09T05:34:57;27.30;;;17.00;;
50968;SDS011;36982;51.474;7.228;2023-04-09T05:37:23;26.70;;;16.50;;
50968;SDS011;36982;51.474;7.228;2023-04-09T05:39:49;24.93;;;16.13;;
50968;SDS011;36982;51.474;7.228;2023-04-09T05:42:14;25.70;;;16.73;;
50968;SDS011;36982;51.474;7.228;2023-04-09T05:44:40;25.23;;;16.87;;
50968;SDS011;36982;51.474;7.228;2023-04-09T05:47:05;24.70;;;16.60;;
50968;SDS011;36982;51.474;7.228;2023-04-09T05:49:31;25.37;;;16.53;;
50968;SDS011;36982;51.474;7.228;2023-04-09T05:51:57;26.90;;;16.13;;
50968;SDS011;36982;51.474;7.228;2023-04-09T05:54:22;24.10;;;16.07;;
50968;SDS011;36982;51.474;7.228;2023-04-09T05:56:48;23.00;;;15.93;;
50968;SDS011;36982;51.474;7.228;2023-04-09T05:59:13;25.03;;;16.30;;
50968;SDS011;36982;51.474;7.228;2023-04-09T06:01:39;22.27;;;15.50;;
50968;SDS011;36982;51.474;7.228;2023-04-09T06:04:05;25.50;;;15.37;;
50968;SDS011;36982;51.474;7.228;2023-04-09T06:06:30;21.60;;;15.70;;
50968;SDS011;36982;51.474;7.228;2023-04-09T06:08:56;23.93;;;16.57;;
50968;SDS011;36982;51.474;7.228;2023-04-09T06:11:22;23.67;;;16.13;;
50968;SDS011;36982;51.474;7.228;2023-04-09T06:13:47;22.80;;;15.63;;
50968;SDS011;36982;51.474;7.228;2023-04-09T06:16:13;24.97;;;15.27;;
50968;SDS011;36982;51.474;7.228;2023-04-09T06:18:38;23.67;;;16.20;;
50968;SDS011;36982;51.474;7.228;2023-04-09T06:21:06;23.20;;;15.27;;
50968;SDS011;36982;51.474;7.228;2023-04-09T06:23:33;21.20;;;15.00;;
50968;SDS011;36982;51.474;7.228;2023-04-09T06:25:59;23.10;;;15.83;;
50968;SDS011;36982;51.474;7.228;2023-04-09T06:28:27;21.87;;;15.47;;
50968;SDS011;36982;51.474;7.228;2023-04-09T06:30:52;25.70;;;16.33;;
50968;SDS011;36982;51.474;7.228;2023-04-09T06:33:19;23.43;;;16.53;;
50968;SDS011;36982;51.474;7.228;2023-04-09T06:35:45;24.77;;;15.57;;
50968;SDS011;36982;51.474;7.228;2023-04-09T06:38:11;24.10;;;15.67;;
50968;SDS011;36982;51.474;7.228;2023-04-09T06:40:37;25.07;;;15.97;;
50968;SDS011;36982;51.474;7.228;2023-04-09T06:43:03;27.27;;;17.03;;
50968;SDS011;36982;51.474;7.228;2023-04-09T06:45:29;29.03;;;17.57;;
50968;SDS011;36982;51.474;7.228;2023-04-09T06:47:56;25.20;;;15.53;;
50968;SDS011;36982;51.474;7.228;2023-04-09T06:50:22;22.93;;;15.20;;
50968;SDS011;36982;51.474;7.228;2023-04-09T06:52:47;24.43;;;15.83;;
50968;SDS011;36982;51.474;7.228;2023-04-09T06:55:13;23.23;;;15.10;;
50968;SDS011;36982;51.474;7.228;2023-04-09T06:57:39;22.03;;;14.93;;
50968;SDS011;36982;51.474;7.228;2023-04-09T07:00:05;22.10;;;14.57;;
50968;SDS011;36982;51.474;7.228;2023-04-09T07:02:32;22.23;;;14.97;;
50968;SDS011;36982;51.474;7.228;2023-04-09T07:04:58;22.50;;;15.77;;
50968;SDS011;36982;51.474;7.228;2023-04-09T07:07:24;22.17;;;15.10;;
50968;SDS011;36982;51.474;7.228;2023-04-09T07:09:49;21.90;;;15.03;;
50968;SDS011;36982;51.474;7.228;2023-04-09T07:14:52;20.53;;;14.73;;
50968;SDS011;36982;51.474;7.228;2023-04-09T07:17:18;21.00;;;14.33;;
50968;SDS011;36982;51.474;7.228;2023-04-09T07:19:43;22.17;;;14.13;;
50968;SDS011;36982;51.474;7.228;2023-04-09T07:22:09;17.97;;;13.33;;
50968;SDS011;36982;51.474;7.228;2023-04-09T07:24:34;17.43;;;12.23;;
50968;SDS011;36982;51.474;7.228;2023-04-09T07:27:02;17.97;;;12.17;;
50968;SDS011;36982;51.474;7.228;2023-04-09T07:29:28;19.07;;;13.10;;
50968;SDS011;36982;51.474;7.228;2023-04-09T07:31:53;17.60;;;12.27;;
50968;SDS011;36982;51.474;7.228;2023-04-09T07:34:19;20.77;;;12.10;;
50968;SDS011;36982;51.474;7.228;2023-04-09T07:36:44;19.97;;;13.83;;
50968;SDS011;36982;51.474;7.228;2023-04-09T07:39:10;17.67;;;12.07;;
50968;SDS011;36982;51.474;7.228;2023-04-09T07:41:35;18.70;;;12.27;;
50968;SDS011;36982;51.474;7.228;2023-04-09T07:44:01;16.33;;;11.17;;
50968;SDS011;36982;51.474;7.228;2023-04-09T07:46:27;15.57;;;11.03;;
50968;SDS011;36982;51.474;7.228;2023-04-09T07:48:53;16.13;;;11.33;;
50968;SDS011;36982;51.474;7.228;2023-04-09T07:51:18;17.70;;;11.93;;
50968;SDS011;36982;51.474;7.228;2023-04-09T07:53:44;17.87;;;12.13;;
50968;SDS011;36982;51.474;7.228;2023-04-09T07:56:09;16.87;;;11.17;;
50968;SDS011;36982;51.474;7.228;2023-04-09T07:58:36;16.67;;;11.97;;
50968;SDS011;36982;51.474;7.228;2023-04-09T08:01:04;16.93;;;11.47;;
50968;SDS011;36982;51.474;7.228;2023-04-09T08:03:30;12.97;;;10.03;;
50968;SDS011;36982;51.474;7.228;2023-04-09T08:05:55;14.93;;;10.87;;
50968;SDS011;36982;51.474;7.228;2023-04-09T08:08:21;13.40;;;10.50;;
50968;SDS011;36982;51.474;7.228;2023-04-09T08:10:47;15.80;;;10.63;;
50968;SDS011;36982;51.474;7.228;2023-04-09T08:13:12;14.83;;;11.00;;
50968;SDS011;36982;51.474;7.228;2023-04-09T08:15:38;14.70;;;10.73;;
50968;SDS011;36982;51.474;7.228;2023-04-09T08:18:03;14.60;;;9.67;;
50968;SDS011;36982;51.474;7.228;2023-04-09T08:20:29;15.47;;;10.07;;
50968;SDS011;36982;51.474;7.228;2023-04-09T08:22:56;13.07;;;8.77;;
50968;SDS011;36982;51.474;7.228;2023-04-09T08:25:23;13.17;;;9.67;;
50968;SDS011;36982;51.474;7.228;2023-04-09T08:27:50;12.87;;;8.63;;
50968;SDS011;36982;51.474;7.228;2023-04-09T08:30:15;12.57;;;8.87;;
50968;SDS011;36982;51.474;7.228;2023-04-09T08:32:41;13.40;;;9.23;;
50968;SDS011;36982;51.474;7.228;2023-04-09T08:35:08;14.03;;;8.83;;
50968;SDS011;36982;51.474;7.228;2023-04-09T08:37:34;12.13;;;9.07;;
50968;SDS011;36982;51.474;7.228;2023-04-09T08:39:59;11.67;;;8.30;;
50968;SDS011;36982;51.474;7.228;2023-04-09T08:42:25;12.83;;;9.30;;
50968;SDS011;36982;51.474;7.228;2023-04-09T08:44:51;11.53;;;8.57;;
50968;SDS011;36982;51.474;7.228;2023-04-09T08:47:18;9.53;;;7.23;;
50968;SDS011;36982;51.474;7.228;2023-04-09T08:49:44;12.50;;;8.67;;
50968;SDS011;36982;51.474;7.228;2023-04-09T08:52:12;11.13;;;7.70;;
50968;SDS011;36982;51.474;7.228;2023-04-09T08:54:40;10.07;;;7.23;;
50968;SDS011;36982;51.474;7.228;2023-04-09T08:57:05;10.17;;;7.67;;
50968;SDS011;36982;51.474;7.228;2023-04-09T08:59:31;8.80;;;6.13;;
50968;SDS011;36982;51.474;7.228;2023-04-09T09:02:07;10.50;;;7.30;;
50968;SDS011;36982;51.474;7.228;2023-04-09T09:04:44;9.63;;;7.47;;
50968;SDS011;36982;51.474;7.228;2023-04-09T09:07:13;10.43;;;7.07;;
50968;SDS011;36982;51.474;7.228;2023-04-09T09:09:53;10.33;;;7.53;;
50968;SDS011;36982;51.474;7.228;2023-04-09T09:12:30;10.70;;;7.50;;
50968;SDS011;36982;51.474;7.228;2023-04-09T09:15:00;9.50;;;6.90;;
50968;SDS011;36982;51.474;7.228;2023-04-09T09:17:27;9.57;;;7.03;;
50968;SDS011;36982;51.474;7.228;2023-04-09T09:19:52;9.93;;;7.27;;
50968;SDS011;36982;51.474;7.228;2023-04-09T09:22:18;11.00;;;7.63;;
50968;SDS011;36982;51.474;7.228;2023-04-09T09:24:47;10.10;;;7.37;;
50968;SDS011;36982;51.474;7.228;2023-04-09T09:27:35;10.67;;;7.37;;
50968;SDS011;36982;51.474;7.228;2023-04-09T09:30:03;9.03;;;6.33;;
50968;SDS011;36982;51.474;7.228;2023-04-09T09:32:30;9.83;;;6.90;;
50968;SDS011;36982;51.474;7.228;2023-04-09T09:35:04;9.13;;;7.27;;
50968;SDS011;36982;51.474;7.228;2023-04-09T09:37:30;8.63;;;6.60;;
50968;SDS011;36982;51.474;7.228;2023-04-09T09:39:57;10.00;;;7.10;;
50968;SDS011;36982;51.474;7.228;2023-04-09T09:42:23;9.43;;;5.87;;
50968;SDS011;36982;51.474;7.228;2023-04-09T09:44:50;8.23;;;5.60;;
50968;SDS011;36982;51.474;7.228;2023-04-09T09:47:17;7.97;;;6.07;;
50968;SDS011;36982;51.474;7.228;2023-04-09T09:49:47;7.60;;;6.27;;
50968;SDS011;36982;51.474;7.228;2023-04-09T09:52:14;6.53;;;5.20;;
50968;SDS011;36982;51.474;7.228;2023-04-09T09:54:42;7.83;;;5.77;;
50968;SDS011;36982;51.474;7.228;2023-04-09T09:57:10;7.30;;;5.03;;
50968;SDS011;36982;51.474;7.228;2023-04-09T09:59:39;7.67;;;5.50;;
50968;SDS011;36982;51.474;7.228;2023-04-09T10:02:10;6.63;;;5.57;;
50968;SDS011;36982;51.474;7.228;2023-04-09T10:04:42;7.93;;;5.93;;
50968;SDS011;36982;51.474;7.228;2023-04-09T10:07:08;7.27;;;5.90;;
50968;SDS011;36982;51.474;7.228;2023-04-09T10:09:38;9.13;;;5.80;;
50968;SDS011;36982;51.474;7.228;2023-04-09T10:12:06;7.80;;;5.93;;
50968;SDS011;36982;51.474;7.228;2023-04-09T10:14:34;7.80;;;5.80;;
50968;SDS011;36982;51.474;7.228;2023-04-09T10:17:00;6.53;;;5.27;;
50968;SDS011;36982;51.474;7.228;2023-04-09T10:19:28;7.17;;;5.10;;
50968;SDS011;36982;51.474;7.228;2023-04-09T10:21:56;7.17;;;4.97;;
50968;SDS011;36982;51.474;7.228;2023-04-09T10:24:28;6.97;;;4.97;;
50968;SDS011;36982;51.474;7.228;2023-04-09T10:26:56;6.33;;;5.07;;
50968;SDS011;36982;51.474;7.228;2023-04-09T10:29:32;6.60;;;4.90;;
50968;SDS011;36982;51.474;7.228;2023-04-09T10:32:05;7.33;;;5.23;;
50968;SDS011;36982;51.474;7.228;2023-04-09T10:34:35;6.57;;;4.83;;
50968;SDS011;36982;51.474;7.228;2023-04-09T10:37:05;6.23;;;5.00;;
50968;SDS011;36982;51.474;7.228;2023-04-09T10:39:32;6.57;;;4.90;;
50968;SDS011;36982;51.474;7.228;2023-04-09T10:41:59;6.27;;;4.80;;
50968;SDS011;36982;51.474;7.228;2023-04-09T10:44:28;5.53;;;4.60;;
50968;SDS011;36982;51.474;7.228;2023-04-09T10:46:59;6.13;;;5.07;;
50968;SDS011;36982;51.474;7.228;2023-04-09T10:49:27;7.10;;;4.90;;
50968;SDS011;36982;51.474;7.228;2023-04-09T10:52:04;7.03;;;5.70;;
50968;SDS011;36982;51.474;7.228;2023-04-09T10:59:35;6.53;;;5.63;;
50968;SDS011;36982;51.474;7.228;2023-04-09T11:02:09;6.63;;;4.87;;
50968;SDS011;36982;51.474;7.228;2023-04-09T11:05:06;6.90;;;5.03;;
50968;SDS011;36982;51.474;7.228;2023-04-09T11:10:27;6.40;;;4.87;;
50968;SDS011;36982;51.474;7.228;2023-04-09T11:12:53;6.37;;;4.70;;
50968;SDS011;36982;51.474;7.228;2023-04-09T11:15:18;7.53;;;4.97;;
50968;SDS011;36982;51.474;7.228;2023-04-09T11:17:45;5.77;;;4.83;;
50968;SDS011;36982;51.474;7.228;2023-04-09T11:20:12;5.90;;;4.87;;
50968;SDS011;36982;51.474;7.228;2023-04-09T11:22:39;6.47;;;5.10;;
50968;SDS011;36982;51.474;7.228;2023-04-09T11:25:04;6.13;;;4.73;;
50968;SDS011;36982;51.474;7.228;2023-04-09T11:27:35;6.90;;;4.93;;
50968;SDS011;36982;51.474;7.228;2023-04-09T11:30:01;6.60;;;5.53;;
50968;SDS011;36982;51.474;7.228;2023-04-09T11:32:29;6.10;;;4.93;;
50968;SDS011;36982;51.474;7.228;2023-04-09T11:34:55;5.40;;;4.60;;
50968;SDS011;36982;51.474;7.228;2023-04-09T11:37:21;6.23;;;4.90;;
50968;SDS011;36982;51.474;7.228;2023-04-09T11:39:48;6.03;;;5.10;;
50968;SDS011;36982;51.474;7.228;2023-04-09T11:42:18;6.03;;;4.87;;
50968;SDS011;36982;51.474;7.228;2023-04-09T11:44:43;6.40;;;5.20;;
50968;SDS011;36982;51.474;7.228;2023-04-09T11:47:10;6.43;;;5.20;;
50968;SDS011;36982;51.474;7.228;2023-04-09T11:49:37;6.73;;;5.30;;
50968;SDS011;36982;51.474;7.228;2023-04-09T11:52:03;6.77;;;5.20;;
50968;SDS011;36982;51.474;7.228;2023-04-09T11:54:32;5.67;;;4.90;;
50968;SDS011;36982;51.474;7.228;2023-04-09T11:56:59;6.73;;;5.30;;
50968;SDS011;36982;51.474;7.228;2023-04-09T11:59:25;6.87;;;5.37;;
50968;SDS011;36982;51.474;7.228;2023-04-09T12:01:51;6.67;;;5.17;;
50968;SDS011;36982;51.474;7.228;2023-04-09T12:04:20;6.30;;;5.60;;
50968;SDS011;36982;51.474;7.228;2023-04-09T12:06:46;6.47;;;5.50;;
50968;SDS011;36982;51.474;7.228;2023-04-09T12:09:12;7.27;;;5.00;;
50968;SDS011;36982;51.474;7.228;2023-04-09T12:11:38;7.37;;;5.67;;
50968;SDS011;36982;51.474;7.228;2023-04-09T12:14:07;7.03;;;5.43;;
50968;SDS011;36982;51.474;7.228;2023-04-09T12:16:37;7.27;;;5.30;;
50968;SDS011;36982;51.474;7.228;2023-04-09T12:19:05;6.57;;;5.57;;
50968;SDS011;36982;51.474;7.228;2023-04-09T12:24:13;6.53;;;5.20;;
50968;SDS011;36982;51.474;7.228;2023-04-09T12:26:46;6.70;;;5.50;;
50968;SDS011;36982;51.474;7.228;2023-04-09T12:29:13;6.83;;;5.63;;
50968;SDS011;36982;51.474;7.228;2023-04-09T12:31:39;6.43;;;4.97;;
50968;SDS011;36982;51.474;7.228;2023-04-09T12:34:05;6.70;;;5.40;;
50968;SDS011;36982;51.474;7.228;2023-04-09T12:36:31;6.80;;;5.40;;
50968;SDS011;36982;51.474;7.228;2023-04-09T12:38:57;6.00;;;5.10;;
50968;SDS011;36982;51.474;7.228;2023-04-09T12:41:23;6.90;;;5.50;;
50968;SDS011;36982;51.474;7.228;2023-04-09T12:43:48;6.73;;;5.80;;
50968;SDS011;36982;51.474;7.228;2023-04-09T12:46:14;7.07;;;5.83;;
50968;SDS011;36982;51.474;7.228;2023-04-09T12:48:41;7.70;;;5.50;;
50968;SDS011;36982;51.474;7.228;2023-04-09T12:51:07;7.57;;;5.50;;
50968;SDS011;36982;51.474;7.228;2023-04-09T12:53:35;5.90;;;5.00;;
50968;SDS011;36982;51.474;7.228;2023-04-09T12:56:00;6.73;;;5.73;;
50968;SDS011;36982;51.474;7.228;2023-04-09T12:58:26;7.10;;;5.17;;
50968;SDS011;36982;51.474;7.228;2023-04-09T13:00:52;6.33;;;5.40;;
50968;SDS011;36982;51.474;7.228;2023-04-09T13:03:20;6.87;;;5.13;;
50968;SDS011;36982;51.474;7.228;2023-04-09T13:05:46;5.60;;;4.90;;
50968;SDS011;36982;51.474;7.228;2023-04-09T13:08:12;5.57;;;4.97;;
50968;SDS011;36982;51.474;7.228;2023-04-09T13:10:38;7.10;;;5.70;;
50968;SDS011;36982;51.474;7.228;2023-04-09T13:13:03;5.97;;;5.10;;
50968;SDS011;36982;51.474;7.228;2023-04-09T13:15:30;7.40;;;5.80;;
50968;SDS011;36982;51.474;7.228;2023-04-09T13:17:56;6.53;;;5.50;;
50968;SDS011;36982;51.474;7.228;2023-04-09T13:20:21;5.85;;;5.22;;
50968;SDS011;36982;51.474;7.228;2023-04-09T13:22:47;6.97;;;5.27;;
50968;SDS011;36982;51.474;7.228;2023-04-09T13:25:17;5.63;;;4.97;;
50968;SDS011;36982;51.474;7.228;2023-04-09T13:27:42;7.87;;;5.70;;
50968;SDS011;36982;51.474;7.228;2023-04-09T13:30:08;6.13;;;5.33;;
50968;SDS011;36982;51.474;7.228;2023-04-09T13:32:34;5.83;;;5.23;;
50968;SDS011;36982;51.474;7.228;2023-04-09T13:35:00;5.82;;;4.93;;
50968;SDS011;36982;51.474;7.228;2023-04-09T13:37:25;6.72;;;5.30;;
50968;SDS011;36982;51.474;7.228;2023-04-09T13:39:51;5.95;;;4.70;;
50968;SDS011;36982;51.474;7.228;2023-04-09T13:42:17;6.12;;;5.10;;
50968;SDS011;36982;51.474;7.228;2023-04-09T13:44:43;6.13;;;5.10;;
50968;SDS011;36982;51.474;7.228;2023-04-09T13:47:13;6.23;;;5.20;;
50968;SDS011;36982;51.474;7.228;2023-04-09T13:49:40;6.50;;;5.10;;
50968;SDS011;36982;51.474;7.228;2023-04-09T13:52:06;6.40;;;5.10;;
50968;SDS011;36982;51.474;7.228;2023-04-09T13:54:32;6.23;;;4.90;;
50968;SDS011;36982;51.474;7.228;2023-04-09T13:56:58;6.12;;;4.85;;
50968;SDS011;36982;51.474;7.228;2023-04-09T13:59:24;6.57;;;5.07;;
50968;SDS011;36982;51.474;7.228;2023-04-09T14:01:50;5.53;;;4.72;;
50968;SDS011;36982;51.474;7.228;2023-04-09T14:04:16;6.75;;;4.97;;
50968;SDS011;36982;51.474;7.228;2023-04-09T14:06:41;6.55;;;4.90;;
50968;SDS011;36982;51.474;7.228;2023-04-09T14:09:07;5.68;;;5.10;;
50968;SDS011;36982;51.474;7.228;2023-04-09T14:11:34;6.70;;;5.65;;
50968;SDS011;36982;51.474;7.228;2023-04-09T14:14:00;6.25;;;5.03;;
50968;SDS011;36982;51.474;7.228;2023-04-09T14:16:25;5.00;;;4.37;;
50968;SDS011;36982;51.474;7.228;2023-04-09T14:18:52;5.82;;;4.78;;
50968;SDS011;36982;51.474;7.228;2023-04-09T14:21:17;5.43;;;4.72;;
50968;SDS011;36982;51.474;7.228;2023-04-09T14:23:43;6.35;;;4.87;;
50968;SDS011;36982;51.474;7.228;2023-04-09T14:26:09;6.65;;;4.65;;
50968;SDS011;36982;51.474;7.228;2023-04-09T14:28:35;5.53;;;4.93;;
50968;SDS011;36982;51.474;7.228;2023-04-09T14:31:02;5.87;;;4.67;;
50968;SDS011;36982;51.474;7.228;2023-04-09T14:33:28;6.73;;;5.07;;
50968;SDS011;36982;51.474;7.228;2023-04-09T14:35:54;6.13;;;4.90;;
50968;SDS011;36982;51.474;7.228;2023-04-09T14:38:20;5.27;;;4.67;;
50968;SDS011;36982;51.474;7.228;2023-04-09T14:40:47;5.13;;;4.50;;
50968;SDS011;36982;51.474;7.228;2023-04-09T14:43:13;5.50;;;4.63;;
50968;SDS011;36982;51.474;7.228;2023-04-09T14:45:39;5.33;;;4.30;;
50968;SDS011;36982;51.474;7.228;2023-04-09T14:48:05;5.53;;;4.50;;
50968;SDS011;36982;51.474;7.228;2023-04-09T14:50:30;6.43;;;4.63;;